sensor_id;sensor_type;location;lat;lon;timestamp;pressure;altitude;pressure_sealevel;temperature;humidity
29379;BME280;16362;47.202;15.258;2022-12-31T00:02:12;96531.44;;;-0.04;100.00
29379;BME280;16362;47.202;15.258;2022-12-31T00:04:39;96517.34;;;-0.15;100.00
29379;BME280;16362;47.202;15.258;2022-12-31T00:07:05;96519.09;;;-0.29;100.00
29379;BME280;16362;47.202;15.258;2022-12-31T00:09:32;96528.53;;;-0.39;100.00
29379;BME280;16362;47.202;15.258;2022-12-31T00:11:58;96527.53;;;-0.51;100.00
29379;BME280;16362;47.202;15.258;2022-12-31T00:14:25;96534.66;;;-0.53;100.00
29379;BME280;16362;47.202;15.258;2022-12-31T00:16:51;96542.47;;;-0.66;100.00
29379;BME280;16362;47.202;15.258;2022-12-31T00:19:18;96552.03;;;-0.65;100.00
29379;BME280;16362;47.202;15.258;2022-12-31T00:21:44;96549.50;;;-0.66;100.00
29379;BME280;16362;47.202;15.258;2022-12-31T00:24:11;96554.00;;;-0.69;100.00
29379;BME280;16362;47.202;15.258;2022-12-31T00:26:38;96542.59;;;-0.68;100.00
29379;BME280;16362;47.202;15.258;2022-12-31T00:29:04;96553.91;;;-0.67;100.00
29379;BME280;16362;47.202;15.258;2022-12-31T00:31:32;96552.22;;;-0.68;100.00
29379;BME280;16362;47.202;15.258;2022-12-31T00:33:59;96548.75;;;-0.69;100.00
29379;BME280;16362;47.202;15.258;2022-12-31T00:36:27;96549.69;;;-0.70;100.00
29379;BME280;16362;47.202;15.258;2022-12-31T00:38:54;96549.75;;;-0.57;100.00
29379;BME280;16362;47.202;15.258;2022-12-31T00:41:21;96549.13;;;-0.47;100.00
29379;BME280;16362;47.202;15.258;2022-12-31T00:43:49;96537.25;;;-0.26;100.00
29379;BME280;16362;47.202;15.258;2022-12-31T00:46:16;96546.59;;;-0.62;100.00
29379;BME280;16362;47.202;15.258;2022-12-31T00:48:42;96547.03;;;-0.55;100.00
29379;BME280;16362;47.202;15.258;2022-12-31T00:51:10;96543.88;;;-0.60;100.00
29379;BME280;16362;47.202;15.258;2022-12-31T00:53:37;96540.91;;;-0.69;100.00
29379;BME280;16362;47.202;15.258;2022-12-31T00:56:05;96546.34;;;-0.72;100.00
29379;BME280;16362;47.202;15.258;2022-12-31T00:58:32;96552.63;;;-0.74;100.00
29379;BME280;16362;47.202;15.258;2022-12-31T01:01:14;96566.84;;;-0.78;100.00
29379;BME280;16362;47.202;15.258;2022-12-31T01:03:42;96567.22;;;-0.85;100.00
29379;BME280;16362;47.202;15.258;2022-12-31T01:06:09;96580.53;;;-0.88;100.00
29379;BME280;16362;47.202;15.258;2022-12-31T01:08:36;96584.84;;;-0.87;100.00
29379;BME280;16362;47.202;15.258;2022-12-31T01:11:03;96591.75;;;-0.86;100.00
29379;BME280;16362;47.202;15.258;2022-12-31T01:13:45;96596.81;;;-0.82;100.00
29379;BME280;16362;47.202;15.258;2022-12-31T01:16:12;96602.69;;;-0.79;100.00
29379;BME280;16362;47.202;15.258;2022-12-31T01:18:39;96599.25;;;-0.79;100.00
29379;BME280;16362;47.202;15.258;2022-12-31T01:21:07;96610.00;;;-0.84;100.00
29379;BME280;16362;47.202;15.258;2022-12-31T01:23:34;96601.28;;;-0.85;100.00
29379;BME280;16362;47.202;15.258;2022-12-31T01:26:02;96591.16;;;-0.76;100.00
29379;BME280;16362;47.202;15.258;2022-12-31T01:28:29;96599.03;;;-0.76;100.00
29379;BME280;16362;47.202;15.258;2022-12-31T01:30:55;96604.84;;;-0.71;100.00
29379;BME280;16362;47.202;15.258;2022-12-31T01:33:22;96610.63;;;-0.66;100.00
29379;BME280;16362;47.202;15.258;2022-12-31T01:35:48;96622.72;;;-0.63;100.00
29379;BME280;16362;47.202;15.258;2022-12-31T01:38:15;96621.84;;;-0.64;100.00
29379;BME280;16362;47.202;15.258;2022-12-31T01:40:41;96623.91;;;-0.69;100.00
29379;BME280;16362;47.202;15.258;2022-12-31T01:43:13;96609.97;;;-0.70;100.00
29379;BME280;16362;47.202;15.258;2022-12-31T01:45:41;96608.59;;;-0.75;100.00
29379;BME280;16362;47.202;15.258;2022-12-31T01:48:08;96618.13;;;-0.74;100.00
29379;BME280;16362;47.202;15.258;2022-12-31T01:50:37;96610.81;;;-0.69;100.00
29379;BME280;16362;47.202;15.258;2022-12-31T01:53:06;96609.41;;;-0.75;100.00
29379;BME280;16362;47.202;15.258;2022-12-31T01:58:01;96633.50;;;-0.82;100.00
29379;BME280;16362;47.202;15.258;2022-12-31T02:00:30;96637.78;;;-0.81;100.00
29379;BME280;16362;47.202;15.258;2022-12-31T02:02:56;96648.47;;;-0.85;100.00
29379;BME280;16362;47.202;15.258;2022-12-31T02:05:30;96651.91;;;-0.84;100.00
29379;BME280;16362;47.202;15.258;2022-12-31T02:07:59;96645.19;;;-0.74;100.00
29379;BME280;16362;47.202;15.258;2022-12-31T02:10:25;96643.50;;;-0.75;100.00
29379;BME280;16362;47.202;15.258;2022-12-31T02:12:52;96653.34;;;-0.78;100.00
29379;BME280;16362;47.202;15.258;2022-12-31T02:15:20;96657.47;;;-0.74;100.00
29379;BME280;16362;47.202;15.258;2022-12-31T02:18:02;96654.06;;;-0.76;100.00
29379;BME280;16362;47.202;15.258;2022-12-31T02:28:54;96646.41;;;-0.65;100.00
29379;BME280;16362;47.202;15.258;2022-12-31T02:36:36;96642.50;;;-0.87;100.00
29379;BME280;16362;47.202;15.258;2022-12-31T02:39:04;96648.84;;;-0.91;100.00
29379;BME280;16362;47.202;15.258;2022-12-31T02:41:31;96650.81;;;-0.94;100.00
29379;BME280;16362;47.202;15.258;2022-12-31T02:44:35;96656.06;;;-0.94;100.00
29379;BME280;16362;47.202;15.258;2022-12-31T02:54:35;96649.22;;;-0.82;100.00
29379;BME280;16362;47.202;15.258;2022-12-31T03:02:37;96646.41;;;-0.79;100.00
29379;BME280;16362;47.202;15.258;2022-12-31T03:05:05;96648.84;;;-0.76;100.00
29379;BME280;16362;47.202;15.258;2022-12-31T03:07:33;96654.94;;;-0.76;100.00
29379;BME280;16362;47.202;15.258;2022-12-31T03:10:00;96646.31;;;-0.78;100.00
29379;BME280;16362;47.202;15.258;2022-12-31T03:12:27;96656.44;;;-0.72;100.00
29379;BME280;16362;47.202;15.258;2022-12-31T03:20:32;96663.63;;;-0.90;100.00
29379;BME280;16362;47.202;15.258;2022-12-31T03:23:27;96669.63;;;-0.88;100.00
29379;BME280;16362;47.202;15.258;2022-12-31T03:25:55;96655.88;;;-0.91;100.00
29379;BME280;16362;47.202;15.258;2022-12-31T03:28:24;96655.88;;;-0.91;100.00
29379;BME280;16362;47.202;15.258;2022-12-31T03:30:52;96655.03;;;-0.92;100.00
29379;BME280;16362;47.202;15.258;2022-12-31T03:33:19;96654.00;;;-0.89;100.00
29379;BME280;16362;47.202;15.258;2022-12-31T03:35:46;96657.34;;;-0.87;100.00
29379;BME280;16362;47.202;15.258;2022-12-31T03:38:14;96656.44;;;-0.86;100.00
29379;BME280;16362;47.202;15.258;2022-12-31T03:40:41;96656.78;;;-0.92;100.00
29379;BME280;16362;47.202;15.258;2022-12-31T03:43:09;96667.38;;;-0.94;100.00
29379;BME280;16362;47.202;15.258;2022-12-31T03:45:36;96665.31;;;-0.89;100.00
29379;BME280;16362;47.202;15.258;2022-12-31T03:48:03;96678.63;;;-0.92;100.00
29379;BME280;16362;47.202;15.258;2022-12-31T03:50:30;96685.91;;;-0.82;100.00
29379;BME280;16362;47.202;15.258;2022-12-31T03:52:57;96692.66;;;-0.78;100.00
29379;BME280;16362;47.202;15.258;2022-12-31T03:55:24;96712.84;;;-0.95;100.00
29379;BME280;16362;47.202;15.258;2022-12-31T03:57:50;96713.13;;;-0.99;100.00
29379;BME280;16362;47.202;15.258;2022-12-31T04:00:19;96720.16;;;-1.00;100.00
29379;BME280;16362;47.202;15.258;2022-12-31T04:02:46;96716.56;;;-0.99;100.00
29379;BME280;16362;47.202;15.258;2022-12-31T04:05:13;96726.41;;;-1.03;100.00
29379;BME280;16362;47.202;15.258;2022-12-31T04:07:40;96720.31;;;-1.03;100.00
29379;BME280;16362;47.202;15.258;2022-12-31T04:10:07;96726.22;;;-0.99;100.00
29379;BME280;16362;47.202;15.258;2022-12-31T04:12:35;96721.81;;;-0.99;100.00
29379;BME280;16362;47.202;15.258;2022-12-31T04:15:02;96729.63;;;-0.97;100.00
29379;BME280;16362;47.202;15.258;2022-12-31T04:17:28;96723.50;;;-0.98;100.00
29379;BME280;16362;47.202;15.258;2022-12-31T04:19:55;96728.09;;;-1.02;100.00
29379;BME280;16362;47.202;15.258;2022-12-31T04:22:21;96723.13;;;-1.06;100.00
29379;BME280;16362;47.202;15.258;2022-12-31T04:24:48;96730.81;;;-1.03;100.00
29379;BME280;16362;47.202;15.258;2022-12-31T04:27:15;96742.63;;;-0.96;100.00
29379;BME280;16362;47.202;15.258;2022-12-31T04:29:41;96745.63;;;-0.88;100.00
29379;BME280;16362;47.202;15.258;2022-12-31T04:32:08;96749.94;;;-0.87;100.00
29379;BME280;16362;47.202;15.258;2022-12-31T04:34:34;96762.84;;;-0.83;100.00
29379;BME280;16362;47.202;15.258;2022-12-31T04:37:01;96768.09;;;-0.83;100.00
29379;BME280;16362;47.202;15.258;2022-12-31T04:39:28;96781.44;;;-0.88;100.00
29379;BME280;16362;47.202;15.258;2022-12-31T04:41:55;96796.16;;;-0.86;100.00
29379;BME280;16362;47.202;15.258;2022-12-31T04:44:21;96778.38;;;-0.80;100.00
29379;BME280;16362;47.202;15.258;2022-12-31T04:46:48;96787.34;;;-0.85;100.00
29379;BME280;16362;47.202;15.258;2022-12-31T04:49:15;96790.91;;;-0.86;100.00
29379;BME280;16362;47.202;15.258;2022-12-31T04:51:41;96797.09;;;-0.87;100.00
29379;BME280;16362;47.202;15.258;2022-12-31T04:54:08;96805.03;;;-0.88;100.00
29379;BME280;16362;47.202;15.258;2022-12-31T04:56:34;96797.16;;;-0.88;100.00
29379;BME280;16362;47.202;15.258;2022-12-31T04:59:02;96805.50;;;-0.81;100.00
29379;BME280;16362;47.202;15.258;2022-12-31T05:01:29;96810.00;;;-0.83;100.00
29379;BME280;16362;47.202;15.258;2022-12-31T05:03:56;96805.78;;;-0.86;100.00
29379;BME280;16362;47.202;15.258;2022-12-31T05:06:23;96809.34;;;-0.87;100.00
29379;BME280;16362;47.202;15.258;2022-12-31T05:08:50;96803.28;;;-0.73;100.00
29379;BME280;16362;47.202;15.258;2022-12-31T05:11:17;96797.38;;;-0.62;100.00
29379;BME280;16362;47.202;15.258;2022-12-31T05:13:43;96794.50;;;-0.58;100.00
29379;BME280;16362;47.202;15.258;2022-12-31T05:16:10;96801.59;;;-0.60;100.00
29379;BME280;16362;47.202;15.258;2022-12-31T05:18:37;96803.31;;;-0.59;100.00
29379;BME280;16362;47.202;15.258;2022-12-31T05:21:03;96811.75;;;-0.54;100.00
29379;BME280;16362;47.202;15.258;2022-12-31T05:23:30;96816.31;;;-0.57;100.00
29379;BME280;16362;47.202;15.258;2022-12-31T05:25:56;96828.69;;;-0.59;100.00
29379;BME280;16362;47.202;15.258;2022-12-31T05:28:25;96832.25;;;-0.60;100.00
29379;BME280;16362;47.202;15.258;2022-12-31T05:30:51;96833.75;;;-0.56;100.00
29379;BME280;16362;47.202;15.258;2022-12-31T05:33:18;96828.59;;;-0.58;100.00
29379;BME280;16362;47.202;15.258;2022-12-31T05:35:45;96830.72;;;-0.64;100.00
29379;BME280;16362;47.202;15.258;2022-12-31T05:38:12;96831.75;;;-0.67;100.00
29379;BME280;16362;47.202;15.258;2022-12-31T05:40:39;96828.22;;;-0.66;100.00
29379;BME280;16362;47.202;15.258;2022-12-31T05:43:06;96831.56;;;-0.64;100.00
29379;BME280;16362;47.202;15.258;2022-12-31T05:45:32;96819.41;;;-0.65;100.00
29379;BME280;16362;47.202;15.258;2022-12-31T05:47:59;96822.78;;;-0.63;100.00
29379;BME280;16362;47.202;15.258;2022-12-31T05:50:26;96821.38;;;-0.69;100.00
29379;BME280;16362;47.202;15.258;2022-12-31T05:52:52;96820.25;;;-0.64;100.00
29379;BME280;16362;47.202;15.258;2022-12-31T05:55:19;96831.47;;;-0.62;100.00
29379;BME280;16362;47.202;15.258;2022-12-31T05:57:45;96821.09;;;-0.64;100.00
29379;BME280;16362;47.202;15.258;2022-12-31T06:00:12;96831.47;;;-0.62;100.00
29379;BME280;16362;47.202;15.258;2022-12-31T06:02:39;96819.97;;;-0.60;100.00
29379;BME280;16362;47.202;15.258;2022-12-31T06:05:06;96833.16;;;-0.61;100.00
29379;BME280;16362;47.202;15.258;2022-12-31T06:07:32;96833.25;;;-0.63;100.00
29379;BME280;16362;47.202;15.258;2022-12-31T06:09:59;96839.63;;;-0.67;100.00
29379;BME280;16362;47.202;15.258;2022-12-31T06:12:26;96841.03;;;-0.61;100.00
29379;BME280;16362;47.202;15.258;2022-12-31T06:14:52;96836.66;;;-0.61;100.00
29379;BME280;16362;47.202;15.258;2022-12-31T06:17:19;96841.59;;;-0.56;100.00
29379;BME280;16362;47.202;15.258;2022-12-31T06:19:47;96844.06;;;-0.39;100.00
29379;BME280;16362;47.202;15.258;2022-12-31T06:22:14;96852.75;;;-0.38;100.00
29379;BME280;16362;47.202;15.258;2022-12-31T06:24:40;96864.56;;;-0.45;100.00
29379;BME280;16362;47.202;15.258;2022-12-31T06:27:07;96866.63;;;-0.51;100.00
29379;BME280;16362;47.202;15.258;2022-12-31T06:29:34;96856.03;;;-0.49;100.00
29379;BME280;16362;47.202;15.258;2022-12-31T06:32:01;96837.56;;;-0.47;100.00
29379;BME280;16362;47.202;15.258;2022-12-31T06:34:27;96858.75;;;-0.51;100.00
29379;BME280;16362;47.202;15.258;2022-12-31T06:36:54;96853.31;;;-0.47;100.00
29379;BME280;16362;47.202;15.258;2022-12-31T06:39:20;96876.06;;;-0.48;100.00
29379;BME280;16362;47.202;15.258;2022-12-31T06:41:47;96874.69;;;-0.39;100.00
29379;BME280;16362;47.202;15.258;2022-12-31T06:44:13;96891.66;;;-0.30;100.00
29379;BME280;16362;47.202;15.258;2022-12-31T06:46:40;96878.34;;;-0.27;100.00
29379;BME280;16362;47.202;15.258;2022-12-31T06:49:06;96889.22;;;-0.19;100.00
29379;BME280;16362;47.202;15.258;2022-12-31T06:51:33;96892.13;;;0.05;100.00
29379;BME280;16362;47.202;15.258;2022-12-31T06:54:00;96889.41;;;0.07;100.00
29379;BME280;16362;47.202;15.258;2022-12-31T06:56:26;96882.09;;;0.12;100.00
29379;BME280;16362;47.202;15.258;2022-12-31T06:58:59;96885.19;;;0.33;100.00
29379;BME280;16362;47.202;15.258;2022-12-31T07:01:35;96892.19;;;0.47;100.00
29379;BME280;16362;47.202;15.258;2022-12-31T07:07:06;96897.03;;;0.67;100.00
29379;BME280;16362;47.202;15.258;2022-12-31T07:09:39;96891.50;;;0.72;100.00
29379;BME280;16362;47.202;15.258;2022-12-31T07:17:41;96916.78;;;0.88;100.00
29379;BME280;16362;47.202;15.258;2022-12-31T07:20:14;96918.47;;;0.89;100.00
29379;BME280;16362;47.202;15.258;2022-12-31T07:22:41;96913.09;;;0.90;100.00
29379;BME280;16362;47.202;15.258;2022-12-31T07:25:11;96914.34;;;0.84;100.00
29379;BME280;16362;47.202;15.258;2022-12-31T07:30:18;96914.78;;;1.18;100.00
29379;BME280;16362;47.202;15.258;2022-12-31T07:37:50;96917.44;;;2.36;100.00
29379;BME280;16362;47.202;15.258;2022-12-31T07:40:29;96928.44;;;2.67;100.00
29379;BME280;16362;47.202;15.258;2022-12-31T07:45:43;96919.13;;;2.37;100.00
29379;BME280;16362;47.202;15.258;2022-12-31T07:48:23;96915.13;;;2.31;100.00
29379;BME280;16362;47.202;15.258;2022-12-31T07:50:51;96914.81;;;2.10;100.00
29379;BME280;16362;47.202;15.258;2022-12-31T07:53:20;96904.59;;;2.06;100.00
29379;BME280;16362;47.202;15.258;2022-12-31T07:55:54;96911.56;;;2.19;100.00
29379;BME280;16362;47.202;15.258;2022-12-31T07:58:23;96910.16;;;2.27;100.00
29379;BME280;16362;47.202;15.258;2022-12-31T08:00:51;96909.88;;;2.31;100.00
29379;BME280;16362;47.202;15.258;2022-12-31T08:03:23;96917.44;;;2.23;100.00
29379;BME280;16362;47.202;15.258;2022-12-31T08:11:37;96922.09;;;1.94;100.00
29379;BME280;16362;47.202;15.258;2022-12-31T08:14:07;96932.00;;;1.77;100.00
29379;BME280;16362;47.202;15.258;2022-12-31T08:16:35;96940.88;;;1.62;100.00
29379;BME280;16362;47.202;15.258;2022-12-31T08:19:02;96951.84;;;1.56;100.00
29379;BME280;16362;47.202;15.258;2022-12-31T08:21:32;96939.31;;;1.59;100.00
29379;BME280;16362;47.202;15.258;2022-12-31T08:24:08;96947.31;;;1.58;100.00
29379;BME280;16362;47.202;15.258;2022-12-31T08:29:33;96955.25;;;1.83;100.00
29379;BME280;16362;47.202;15.258;2022-12-31T08:32:03;96964.50;;;1.89;100.00
29379;BME280;16362;47.202;15.258;2022-12-31T08:34:45;96972.75;;;2.10;100.00
29379;BME280;16362;47.202;15.258;2022-12-31T08:45:00;96974.75;;;2.19;100.00
29379;BME280;16362;47.202;15.258;2022-12-31T08:47:52;96985.81;;;2.12;100.00
29379;BME280;16362;47.202;15.258;2022-12-31T08:50:25;96983.06;;;2.13;100.00
29379;BME280;16362;47.202;15.258;2022-12-31T08:52:52;96990.13;;;2.13;100.00
29379;BME280;16362;47.202;15.258;2022-12-31T08:55:18;96993.50;;;2.02;100.00
29379;BME280;16362;47.202;15.258;2022-12-31T09:00:14;96981.06;;;2.04;100.00
29379;BME280;16362;47.202;15.258;2022-12-31T09:05:18;96977.38;;;1.94;100.00
29379;BME280;16362;47.202;15.258;2022-12-31T09:10:31;97003.50;;;1.97;100.00
29379;BME280;16362;47.202;15.258;2022-12-31T09:17:57;96992.97;;;1.97;100.00
29379;BME280;16362;47.202;15.258;2022-12-31T09:20:27;96999.91;;;1.98;100.00
29379;BME280;16362;47.202;15.258;2022-12-31T09:23:09;96995.38;;;2.00;100.00
29379;BME280;16362;47.202;15.258;2022-12-31T09:25:38;96995.63;;;2.23;100.00
29379;BME280;16362;47.202;15.258;2022-12-31T09:28:13;97004.47;;;2.34;100.00
29379;BME280;16362;47.202;15.258;2022-12-31T09:30:47;97001.41;;;2.28;100.00
29379;BME280;16362;47.202;15.258;2022-12-31T09:36:02;97000.88;;;2.23;100.00
29379;BME280;16362;47.202;15.258;2022-12-31T09:38:40;96997.72;;;2.17;100.00
29379;BME280;16362;47.202;15.258;2022-12-31T09:41:13;97002.44;;;2.12;100.00
29379;BME280;16362;47.202;15.258;2022-12-31T09:51:47;97002.00;;;2.06;100.00
29379;BME280;16362;47.202;15.258;2022-12-31T09:57:28;97007.09;;;2.09;100.00
29379;BME280;16362;47.202;15.258;2022-12-31T10:02:21;97002.34;;;2.27;100.00
29379;BME280;16362;47.202;15.258;2022-12-31T10:12:41;97006.78;;;2.39;100.00
29379;BME280;16362;47.202;15.258;2022-12-31T10:17:59;97000.66;;;2.51;100.00
29379;BME280;16362;47.202;15.258;2022-12-31T10:33:42;96992.00;;;2.75;100.00
29379;BME280;16362;47.202;15.258;2022-12-31T10:59:39;97000.38;;;3.06;100.00
29379;BME280;16362;47.202;15.258;2022-12-31T11:09:32;96955.25;;;3.46;100.00
29379;BME280;16362;47.202;15.258;2022-12-31T11:12:06;96948.38;;;3.68;100.00
29379;BME280;16362;47.202;15.258;2022-12-31T11:32:14;96946.81;;;4.01;100.00
29379;BME280;16362;47.202;15.258;2022-12-31T11:40:23;96951.84;;;4.15;100.00
29379;BME280;16362;47.202;15.258;2022-12-31T11:43:00;96947.56;;;4.37;100.00
29379;BME280;16362;47.202;15.258;2022-12-31T11:48:19;96943.75;;;4.41;100.00
29379;BME280;16362;47.202;15.258;2022-12-31T11:53:52;96937.09;;;4.69;100.00
29379;BME280;16362;47.202;15.258;2022-12-31T11:56:23;96929.44;;;4.66;100.00
29379;BME280;16362;47.202;15.258;2022-12-31T11:58:52;96935.19;;;4.83;100.00
29379;BME280;16362;47.202;15.258;2022-12-31T12:01:32;96938.91;;;4.80;100.00
29379;BME280;16362;47.202;15.258;2022-12-31T12:04:01;96945.41;;;4.87;100.00
29379;BME280;16362;47.202;15.258;2022-12-31T12:06:29;96935.53;;;5.01;100.00
29379;BME280;16362;47.202;15.258;2022-12-31T12:09:03;96939.84;;;5.02;100.00
29379;BME280;16362;47.202;15.258;2022-12-31T12:11:31;96939.56;;;5.16;100.00
29379;BME280;16362;47.202;15.258;2022-12-31T12:13:59;96944.16;;;5.14;100.00
29379;BME280;16362;47.202;15.258;2022-12-31T12:16:26;96932.50;;;5.17;100.00
29379;BME280;16362;47.202;15.258;2022-12-31T12:19:03;96937.31;;;5.12;100.00
29379;BME280;16362;47.202;15.258;2022-12-31T12:21:31;96948.03;;;5.10;100.00
29379;BME280;16362;47.202;15.258;2022-12-31T12:24:00;96930.41;;;5.20;100.00
29379;BME280;16362;47.202;15.258;2022-12-31T12:26:37;96928.16;;;5.16;100.00
29379;BME280;16362;47.202;15.258;2022-12-31T12:29:24;96931.94;;;5.34;100.00
29379;BME280;16362;47.202;15.258;2022-12-31T12:32:03;96930.97;;;5.35;100.00
29379;BME280;16362;47.202;15.258;2022-12-31T12:34:31;96930.34;;;5.43;100.00
29379;BME280;16362;47.202;15.258;2022-12-31T12:36:58;96919.03;;;5.41;100.00
29379;BME280;16362;47.202;15.258;2022-12-31T12:39:32;96919.81;;;5.32;100.00
29379;BME280;16362;47.202;15.258;2022-12-31T12:44:31;96923.28;;;5.32;100.00
29379;BME280;16362;47.202;15.258;2022-12-31T12:46:58;96928.44;;;5.34;100.00
29379;BME280;16362;47.202;15.258;2022-12-31T12:49:28;96915.16;;;5.45;100.00
29379;BME280;16362;47.202;15.258;2022-12-31T12:59:42;96899.81;;;5.39;100.00
29379;BME280;16362;47.202;15.258;2022-12-31T13:02:21;96903.47;;;5.27;100.00
29379;BME280;16362;47.202;15.258;2022-12-31T13:05:00;96901.84;;;5.35;100.00
29379;BME280;16362;47.202;15.258;2022-12-31T13:07:50;96903.69;;;5.23;100.00
29379;BME280;16362;47.202;15.258;2022-12-31T13:15:55;96898.31;;;5.25;100.00
29379;BME280;16362;47.202;15.258;2022-12-31T13:26:03;96900.34;;;5.21;100.00
29379;BME280;16362;47.202;15.258;2022-12-31T13:28:33;96908.69;;;5.17;100.00
29379;BME280;16362;47.202;15.258;2022-12-31T13:31:03;96904.81;;;5.21;100.00
29379;BME280;16362;47.202;15.258;2022-12-31T13:33:34;96913.84;;;5.18;100.00
29379;BME280;16362;47.202;15.258;2022-12-31T13:36:03;96911.22;;;5.07;100.00
29379;BME280;16362;47.202;15.258;2022-12-31T13:38:35;96908.09;;;5.02;100.00
29379;BME280;16362;47.202;15.258;2022-12-31T13:44:05;96900.75;;;5.17;100.00
29379;BME280;16362;47.202;15.258;2022-12-31T13:49:04;96893.53;;;5.08;100.00
29379;BME280;16362;47.202;15.258;2022-12-31T13:51:45;96890.31;;;5.04;100.00
29379;BME280;16362;47.202;15.258;2022-12-31T13:56:41;96899.44;;;5.00;100.00
29379;BME280;16362;47.202;15.258;2022-12-31T13:59:26;96901.38;;;4.98;100.00
29379;BME280;16362;47.202;15.258;2022-12-31T14:01:56;96908.72;;;4.94;100.00
29379;BME280;16362;47.202;15.258;2022-12-31T14:04:38;96903.78;;;5.01;100.00
29379;BME280;16362;47.202;15.258;2022-12-31T14:07:17;96904.69;;;5.11;100.00
29379;BME280;16362;47.202;15.258;2022-12-31T14:09:46;96905.94;;;4.96;100.00
29379;BME280;16362;47.202;15.258;2022-12-31T14:14:49;96925.94;;;4.77;100.00
29379;BME280;16362;47.202;15.258;2022-12-31T14:25:19;96924.28;;;4.53;100.00
29379;BME280;16362;47.202;15.258;2022-12-31T14:27:48;96934.72;;;4.44;100.00
29379;BME280;16362;47.202;15.258;2022-12-31T14:30:20;96939.16;;;4.43;100.00
29379;BME280;16362;47.202;15.258;2022-12-31T14:32:54;96931.22;;;4.54;100.00
29379;BME280;16362;47.202;15.258;2022-12-31T14:45:26;96937.00;;;4.48;100.00
29379;BME280;16362;47.202;15.258;2022-12-31T14:50:24;96944.81;;;4.50;100.00
29379;BME280;16362;47.202;15.258;2022-12-31T14:52:52;96942.31;;;4.48;100.00
29379;BME280;16362;47.202;15.258;2022-12-31T14:57:47;96942.91;;;4.52;100.00
29379;BME280;16362;47.202;15.258;2022-12-31T15:00:49;96932.91;;;4.55;100.00
29379;BME280;16362;47.202;15.258;2022-12-31T15:11:20;96942.88;;;4.29;100.00
29379;BME280;16362;47.202;15.258;2022-12-31T15:24:20;96951.66;;;3.83;100.00
29379;BME280;16362;47.202;15.258;2022-12-31T15:26:52;96957.44;;;3.88;100.00
29379;BME280;16362;47.202;15.258;2022-12-31T15:29:26;96966.81;;;3.92;100.00
29379;BME280;16362;47.202;15.258;2022-12-31T15:31:54;96969.06;;;3.85;100.00
29379;BME280;16362;47.202;15.258;2022-12-31T15:34:40;96973.38;;;3.75;100.00
29379;BME280;16362;47.202;15.258;2022-12-31T15:37:31;96968.44;;;3.70;100.00
29379;BME280;16362;47.202;15.258;2022-12-31T15:40:02;96972.13;;;3.68;100.00
29379;BME280;16362;47.202;15.258;2022-12-31T15:42:40;96976.66;;;3.54;100.00
29379;BME280;16362;47.202;15.258;2022-12-31T15:45:23;96970.50;;;3.43;100.00
29379;BME280;16362;47.202;15.258;2022-12-31T15:47:53;96968.75;;;3.30;100.00
29379;BME280;16362;47.202;15.258;2022-12-31T15:50:21;96978.34;;;3.31;100.00
29379;BME280;16362;47.202;15.258;2022-12-31T15:52:52;96991.09;;;3.37;100.00
29379;BME280;16362;47.202;15.258;2022-12-31T15:55:28;96988.28;;;3.28;100.00
29379;BME280;16362;47.202;15.258;2022-12-31T15:57:57;96989.06;;;3.17;100.00
29379;BME280;16362;47.202;15.258;2022-12-31T16:00:25;96993.81;;;3.12;100.00
29379;BME280;16362;47.202;15.258;2022-12-31T16:02:55;97000.97;;;3.10;100.00
29379;BME280;16362;47.202;15.258;2022-12-31T16:05:23;96997.34;;;2.99;100.00
29379;BME280;16362;47.202;15.258;2022-12-31T16:07:51;96999.97;;;2.99;100.00
29379;BME280;16362;47.202;15.258;2022-12-31T16:10:37;96998.56;;;3.07;100.00
29379;BME280;16362;47.202;15.258;2022-12-31T16:13:04;96988.78;;;3.09;100.00
29379;BME280;16362;47.202;15.258;2022-12-31T16:15:31;96996.47;;;3.12;100.00
29379;BME280;16362;47.202;15.258;2022-12-31T16:18:03;96993.66;;;3.02;100.00
29379;BME280;16362;47.202;15.258;2022-12-31T16:20:30;96992.38;;;2.95;100.00
29379;BME280;16362;47.202;15.258;2022-12-31T16:22:59;97003.56;;;2.85;100.00
29379;BME280;16362;47.202;15.258;2022-12-31T16:25:28;96995.56;;;2.87;100.00
29379;BME280;16362;47.202;15.258;2022-12-31T16:27:57;96995.88;;;2.82;100.00
29379;BME280;16362;47.202;15.258;2022-12-31T16:30:27;96992.84;;;2.76;100.00
29379;BME280;16362;47.202;15.258;2022-12-31T16:32:56;96994.88;;;2.72;100.00
29379;BME280;16362;47.202;15.258;2022-12-31T16:35:25;96992.00;;;2.75;100.00
29379;BME280;16362;47.202;15.258;2022-12-31T16:38:11;96990.19;;;2.76;100.00
29379;BME280;16362;47.202;15.258;2022-12-31T16:40:39;96997.91;;;2.66;100.00
29379;BME280;16362;47.202;15.258;2022-12-31T16:43:20;96994.75;;;2.61;100.00
29379;BME280;16362;47.202;15.258;2022-12-31T16:45:47;96992.22;;;2.59;100.00
29379;BME280;16362;47.202;15.258;2022-12-31T16:48:15;97002.66;;;2.61;100.00
29379;BME280;16362;47.202;15.258;2022-12-31T16:50:43;96992.75;;;2.64;100.00
29379;BME280;16362;47.202;15.258;2022-12-31T16:53:10;96999.09;;;2.62;100.00
29379;BME280;16362;47.202;15.258;2022-12-31T16:55:39;96999.38;;;2.70;100.00
29379;BME280;16362;47.202;15.258;2022-12-31T16:58:10;96994.94;;;2.83;100.00
29379;BME280;16362;47.202;15.258;2022-12-31T17:00:40;96990.31;;;2.87;100.00
29379;BME280;16362;47.202;15.258;2022-12-31T17:03:18;96990.31;;;2.87;100.00
29379;BME280;16362;47.202;15.258;2022-12-31T17:05:56;96989.03;;;2.93;100.00
29379;BME280;16362;47.202;15.258;2022-12-31T17:08:37;96992.38;;;2.95;100.00
29379;BME280;16362;47.202;15.258;2022-12-31T17:11:15;96996.69;;;2.96;100.00
29379;BME280;16362;47.202;15.258;2022-12-31T17:14:45;96999.13;;;2.99;100.00
29379;BME280;16362;47.202;15.258;2022-12-31T17:16:36;97006.31;;;2.97;100.00
29379;BME280;16362;47.202;15.258;2022-12-31T17:19:04;97011.56;;;2.97;100.00